sensor_id;sensor_type;location;lat;lon;timestamp;P1;durP1;ratioP1;P2;durP2;ratioP2
47239;SDS011;32978;53.586;10.052;2022-11-15T00:00:51;144.93;;;134.88;;
47239;SDS011;32978;53.586;10.052;2022-11-15T00:05:47;149.20;;;139.38;;
47239;SDS011;32978;53.586;10.052;2022-11-15T00:10:53;146.30;;;136.68;;
47239;SDS011;32978;53.586;10.052;2022-11-15T00:15:49;146.32;;;136.57;;
47239;SDS011;32978;53.586;10.052;2022-11-15T00:20:46;148.48;;;138.48;;
47239;SDS011;32978;53.586;10.052;2022-11-15T00:25:42;145.23;;;135.63;;
47239;SDS011;32978;53.586;10.052;2022-11-15T00:30:38;149.02;;;138.65;;
47239;SDS011;32978;53.586;10.052;2022-11-15T00:35:35;151.77;;;141.55;;
47239;SDS011;32978;53.586;10.052;2022-11-15T00:40:31;148.13;;;138.18;;
47239;SDS011;32978;53.586;10.052;2022-11-15T00:45:27;145.65;;;135.60;;
47239;SDS011;32978;53.586;10.052;2022-11-15T00:50:23;148.23;;;138.23;;
47239;SDS011;32978;53.586;10.052;2022-11-15T00:55:20;145.13;;;135.15;;
47239;SDS011;32978;53.586;10.052;2022-11-15T01:00:16;147.07;;;137.38;;
47239;SDS011;32978;53.586;10.052;2022-11-15T01:05:12;149.73;;;139.73;;
47239;SDS011;32978;53.586;10.052;2022-11-15T01:10:08;153.95;;;143.80;;
47239;SDS011;32978;53.586;10.052;2022-11-15T01:15:05;148.07;;;138.27;;
47239;SDS011;32978;53.586;10.052;2022-11-15T01:20:01;148.73;;;138.88;;
47239;SDS011;32978;53.586;10.052;2022-11-15T01:24:58;145.73;;;136.10;;
47239;SDS011;32978;53.586;10.052;2022-11-15T01:29:54;148.93;;;138.95;;
47239;SDS011;32978;53.586;10.052;2022-11-15T01:34:50;141.13;;;131.82;;
47239;SDS011;32978;53.586;10.052;2022-11-15T01:39:46;139.68;;;130.65;;
47239;SDS011;32978;53.586;10.052;2022-11-15T01:44:52;140.80;;;131.68;;
47239;SDS011;32978;53.586;10.052;2022-11-15T01:49:55;144.45;;;134.93;;
47239;SDS011;32978;53.586;10.052;2022-11-15T01:54:55;144.98;;;135.25;;
47239;SDS011;32978;53.586;10.052;2022-11-15T01:59:52;142.93;;;133.75;;
47239;SDS011;32978;53.586;10.052;2022-11-15T02:04:48;143.90;;;134.40;;
47239;SDS011;32978;53.586;10.052;2022-11-15T02:09:45;146.48;;;136.75;;
47239;SDS011;32978;53.586;10.052;2022-11-15T02:14:42;141.13;;;132.18;;
47239;SDS011;32978;53.586;10.052;2022-11-15T02:19:45;147.52;;;138.18;;
47239;SDS011;32978;53.586;10.052;2022-11-15T02:39:43;143.13;;;133.65;;
47239;SDS011;32978;53.586;10.052;2022-11-15T02:44:42;148.40;;;139.00;;
47239;SDS011;32978;53.586;10.052;2022-11-15T02:50:01;144.85;;;135.45;;
47239;SDS011;32978;53.586;10.052;2022-11-15T02:55:00;141.70;;;132.68;;
47239;SDS011;32978;53.586;10.052;2022-11-15T03:04:56;143.88;;;134.57;;
47239;SDS011;32978;53.586;10.052;2022-11-15T03:10:10;145.43;;;135.95;;
47239;SDS011;32978;53.586;10.052;2022-11-15T03:15:21;142.48;;;133.50;;
47239;SDS011;32978;53.586;10.052;2022-11-15T03:20:19;143.32;;;133.90;;
47239;SDS011;32978;53.586;10.052;2022-11-15T03:25:19;140.38;;;131.48;;
47239;SDS011;32978;53.586;10.052;2022-11-15T03:30:17;140.77;;;131.77;;
47239;SDS011;32978;53.586;10.052;2022-11-15T03:35:14;145.38;;;136.00;;
47239;SDS011;32978;53.586;10.052;2022-11-15T03:40:11;151.02;;;141.23;;
47239;SDS011;32978;53.586;10.052;2022-11-15T03:50:10;148.68;;;139.18;;
47239;SDS011;32978;53.586;10.052;2022-11-15T03:55:10;145.63;;;136.48;;
47239;SDS011;32978;53.586;10.052;2022-11-15T04:00:07;150.60;;;141.10;;
47239;SDS011;32978;53.586;10.052;2022-11-15T04:05:04;147.30;;;137.88;;
47239;SDS011;32978;53.586;10.052;2022-11-15T04:10:00;144.68;;;135.65;;
47239;SDS011;32978;53.586;10.052;2022-11-15T04:15:06;148.68;;;139.27;;
47239;SDS011;32978;53.586;10.052;2022-11-15T04:20:04;155.80;;;146.07;;
47239;SDS011;32978;53.586;10.052;2022-11-15T04:25:19;151.27;;;141.70;;
47239;SDS011;32978;53.586;10.052;2022-11-15T04:30:19;151.23;;;141.93;;
47239;SDS011;32978;53.586;10.052;2022-11-15T04:35:16;153.07;;;143.35;;
47239;SDS011;32978;53.586;10.052;2022-11-15T04:40:12;152.50;;;142.43;;
47239;SDS011;32978;53.586;10.052;2022-11-15T04:45:08;148.63;;;139.48;;
47239;SDS011;32978;53.586;10.052;2022-11-15T04:50:05;152.75;;;143.20;;
47239;SDS011;32978;53.586;10.052;2022-11-15T04:55:01;150.93;;;141.18;;
47239;SDS011;32978;53.586;10.052;2022-11-15T05:00:04;148.43;;;138.97;;
47239;SDS011;32978;53.586;10.052;2022-11-15T05:05:00;147.55;;;138.10;;
47239;SDS011;32978;53.586;10.052;2022-11-15T05:09:57;144.55;;;134.80;;
47239;SDS011;32978;53.586;10.052;2022-11-15T05:14:53;147.02;;;137.60;;
47239;SDS011;32978;53.586;10.052;2022-11-15T05:19:49;137.65;;;128.50;;
47239;SDS011;32978;53.586;10.052;2022-11-15T05:24:45;150.35;;;139.82;;
47239;SDS011;32978;53.586;10.052;2022-11-15T05:29:41;145.45;;;135.63;;
47239;SDS011;32978;53.586;10.052;2022-11-15T05:34:38;142.68;;;133.45;;
47239;SDS011;32978;53.586;10.052;2022-11-15T05:39:34;145.65;;;136.05;;
47239;SDS011;32978;53.586;10.052;2022-11-15T05:44:30;142.82;;;132.98;;
47239;SDS011;32978;53.586;10.052;2022-11-15T05:49:31;141.45;;;132.40;;
47239;SDS011;32978;53.586;10.052;2022-11-15T05:54:27;141.43;;;132.45;;
47239;SDS011;32978;53.586;10.052;2022-11-15T05:59:24;141.23;;;131.95;;
47239;SDS011;32978;53.586;10.052;2022-11-15T06:04:20;142.85;;;133.45;;
47239;SDS011;32978;53.586;10.052;2022-11-15T06:09:16;141.40;;;132.18;;
47239;SDS011;32978;53.586;10.052;2022-11-15T06:14:12;136.40;;;127.47;;
47239;SDS011;32978;53.586;10.052;2022-11-15T06:19:09;138.52;;;129.60;;
47239;SDS011;32978;53.586;10.052;2022-11-15T06:24:05;134.20;;;125.72;;
47239;SDS011;32978;53.586;10.052;2022-11-15T06:29:03;129.45;;;120.93;;
47239;SDS011;32978;53.586;10.052;2022-11-15T06:33:59;131.77;;;123.47;;
47239;SDS011;32978;53.586;10.052;2022-11-15T06:38:56;131.52;;;123.18;;
47239;SDS011;32978;53.586;10.052;2022-11-15T06:43:52;129.05;;;120.60;;
47239;SDS011;32978;53.586;10.052;2022-11-15T06:48:50;122.78;;;114.70;;
47239;SDS011;32978;53.586;10.052;2022-11-15T06:53:46;128.07;;;119.95;;
47239;SDS011;32978;53.586;10.052;2022-11-15T06:58:43;126.30;;;117.80;;
47239;SDS011;32978;53.586;10.052;2022-11-15T07:03:40;127.00;;;118.70;;
47239;SDS011;32978;53.586;10.052;2022-11-15T07:08:36;123.80;;;115.38;;
47239;SDS011;32978;53.586;10.052;2022-11-15T07:13:33;122.13;;;113.82;;
47239;SDS011;32978;53.586;10.052;2022-11-15T07:18:30;121.88;;;113.88;;
47239;SDS011;32978;53.586;10.052;2022-11-15T07:23:27;126.43;;;117.93;;
47239;SDS011;32978;53.586;10.052;2022-11-15T07:28:24;122.85;;;114.78;;
47239;SDS011;32978;53.586;10.052;2022-11-15T07:33:21;124.22;;;116.13;;
47239;SDS011;32978;53.586;10.052;2022-11-15T07:38:17;127.13;;;118.47;;
47239;SDS011;32978;53.586;10.052;2022-11-15T07:43:16;129.82;;;121.22;;
47239;SDS011;32978;53.586;10.052;2022-11-15T07:48:12;129.30;;;120.80;;
47239;SDS011;32978;53.586;10.052;2022-11-15T07:53:09;123.85;;;114.95;;
47239;SDS011;32978;53.586;10.052;2022-11-15T07:58:06;125.97;;;117.80;;
47239;SDS011;32978;53.586;10.052;2022-11-15T08:03:04;126.30;;;118.10;;
47239;SDS011;32978;53.586;10.052;2022-11-15T08:08:00;118.47;;;110.68;;
47239;SDS011;32978;53.586;10.052;2022-11-15T08:12:57;123.40;;;115.22;;
47239;SDS011;32978;53.586;10.052;2022-11-15T08:17:55;127.90;;;119.70;;
47239;SDS011;32978;53.586;10.052;2022-11-15T08:22:51;119.32;;;111.72;;
47239;SDS011;32978;53.586;10.052;2022-11-15T08:27:50;116.55;;;108.80;;
47239;SDS011;32978;53.586;10.052;2022-11-15T08:32:47;119.00;;;111.40;;
47239;SDS011;32978;53.586;10.052;2022-11-15T08:37:44;116.18;;;108.55;;
47239;SDS011;32978;53.586;10.052;2022-11-15T08:42:40;117.25;;;109.82;;
47239;SDS011;32978;53.586;10.052;2022-11-15T08:47:36;114.85;;;107.50;;
47239;SDS011;32978;53.586;10.052;2022-11-15T08:52:33;113.43;;;106.28;;
47239;SDS011;32978;53.586;10.052;2022-11-15T08:57:29;113.00;;;105.78;;
47239;SDS011;32978;53.586;10.052;2022-11-15T09:02:28;104.90;;;98.15;;
47239;SDS011;32978;53.586;10.052;2022-11-15T09:07:24;106.20;;;99.38;;
47239;SDS011;32978;53.586;10.052;2022-11-15T09:12:21;102.03;;;95.22;;
47239;SDS011;32978;53.586;10.052;2022-11-15T09:17:17;102.88;;;96.15;;
47239;SDS011;32978;53.586;10.052;2022-11-15T09:22:19;102.38;;;95.72;;
47239;SDS011;32978;53.586;10.052;2022-11-15T09:27:16;106.47;;;99.45;;
47239;SDS011;32978;53.586;10.052;2022-11-15T09:32:30;100.00;;;93.25;;
47239;SDS011;32978;53.586;10.052;2022-11-15T09:37:34;102.93;;;96.43;;
47239;SDS011;32978;53.586;10.052;2022-11-15T09:47:56;91.07;;;85.00;;
47239;SDS011;32978;53.586;10.052;2022-11-15T09:52:56;82.72;;;77.07;;
47239;SDS011;32978;53.586;10.052;2022-11-15T09:58:15;80.97;;;75.57;;
47239;SDS011;32978;53.586;10.052;2022-11-15T10:03:16;77.88;;;72.65;;
47239;SDS011;32978;53.586;10.052;2022-11-15T10:13:20;74.40;;;69.32;;
47239;SDS011;32978;53.586;10.052;2022-11-15T10:18:30;70.87;;;66.00;;
47239;SDS011;32978;53.586;10.052;2022-11-15T10:23:30;65.38;;;60.63;;
47239;SDS011;32978;53.586;10.052;2022-11-15T10:28:28;73.40;;;68.28;;
47239;SDS011;32978;53.586;10.052;2022-11-15T10:38:22;70.72;;;65.57;;
47239;SDS011;32978;53.586;10.052;2022-11-15T10:43:18;71.53;;;66.85;;
47239;SDS011;32978;53.586;10.052;2022-11-15T10:53:19;68.22;;;63.72;;
47239;SDS011;32978;53.586;10.052;2022-11-15T10:58:31;74.35;;;69.78;;
47239;SDS011;32978;53.586;10.052;2022-11-15T11:03:30;68.57;;;64.07;;
47239;SDS011;32978;53.586;10.052;2022-11-15T11:08:29;76.63;;;71.72;;
47239;SDS011;32978;53.586;10.052;2022-11-15T11:13:27;80.15;;;75.07;;
47239;SDS011;32978;53.586;10.052;2022-11-15T11:18:25;76.10;;;71.35;;
47239;SDS011;32978;53.586;10.052;2022-11-15T11:39:11;76.32;;;71.70;;
47239;SDS011;32978;53.586;10.052;2022-11-15T11:49:09;78.28;;;73.65;;
47239;SDS011;32978;53.586;10.052;2022-11-15T11:54:14;71.40;;;66.90;;
47239;SDS011;32978;53.586;10.052;2022-11-15T12:04:18;65.57;;;61.25;;
47239;SDS011;32978;53.586;10.052;2022-11-15T12:14:25;65.00;;;60.95;;
47239;SDS011;32978;53.586;10.052;2022-11-15T12:19:22;63.97;;;59.95;;
47239;SDS011;32978;53.586;10.052;2022-11-15T12:24:24;60.03;;;56.10;;
47239;SDS011;32978;53.586;10.052;2022-11-15T12:34:39;57.33;;;53.80;;
47239;SDS011;32978;53.586;10.052;2022-11-15T12:44:58;47.30;;;44.03;;
47239;SDS011;32978;53.586;10.052;2022-11-15T12:49:55;41.10;;;38.35;;
47239;SDS011;32978;53.586;10.052;2022-11-15T12:54:52;36.92;;;33.92;;
47239;SDS011;32978;53.586;10.052;2022-11-15T13:04:45;37.33;;;34.55;;
47239;SDS011;32978;53.586;10.052;2022-11-15T13:14:39;38.08;;;35.47;;
47239;SDS011;32978;53.586;10.052;2022-11-15T13:19:35;36.33;;;33.72;;
47239;SDS011;32978;53.586;10.052;2022-11-15T13:24:32;38.70;;;35.78;;
47239;SDS011;32978;53.586;10.052;2022-11-15T13:29:28;39.03;;;36.30;;
47239;SDS011;32978;53.586;10.052;2022-11-15T13:34:26;39.35;;;36.75;;
47239;SDS011;32978;53.586;10.052;2022-11-15T13:39:43;40.33;;;37.28;;
47239;SDS011;32978;53.586;10.052;2022-11-15T13:44:39;38.13;;;35.40;;
47239;SDS011;32978;53.586;10.052;2022-11-15T13:49:49;43.40;;;40.50;;
47239;SDS011;32978;53.586;10.052;2022-11-15T13:54:57;42.15;;;39.17;;
47239;SDS011;32978;53.586;10.052;2022-11-15T13:59:55;43.42;;;40.47;;
47239;SDS011;32978;53.586;10.052;2022-11-15T14:05:02;40.45;;;37.53;;
47239;SDS011;32978;53.586;10.052;2022-11-15T14:10:16;33.72;;;31.17;;
47239;SDS011;32978;53.586;10.052;2022-11-15T14:15:27;34.53;;;32.03;;
47239;SDS011;32978;53.586;10.052;2022-11-15T14:20:29;34.33;;;31.58;;
47239;SDS011;32978;53.586;10.052;2022-11-15T14:25:27;31.80;;;29.35;;
47239;SDS011;32978;53.586;10.052;2022-11-15T14:30:24;32.28;;;29.60;;
47239;SDS011;32978;53.586;10.052;2022-11-15T14:35:21;35.63;;;33.00;;
47239;SDS011;32978;53.586;10.052;2022-11-15T14:40:19;35.60;;;33.20;;
47239;SDS011;32978;53.586;10.052;2022-11-15T14:45:17;40.35;;;37.33;;
47239;SDS011;32978;53.586;10.052;2022-11-15T14:50:17;43.80;;;40.75;;
47239;SDS011;32978;53.586;10.052;2022-11-15T14:55:24;49.13;;;45.70;;
47239;SDS011;32978;53.586;10.052;2022-11-15T15:00:20;52.85;;;49.08;;
47239;SDS011;32978;53.586;10.052;2022-11-15T15:10:14;59.88;;;56.05;;
47239;SDS011;32978;53.586;10.052;2022-11-15T15:15:34;61.42;;;57.58;;
47239;SDS011;32978;53.586;10.052;2022-11-15T15:20:31;63.28;;;59.28;;
47239;SDS011;32978;53.586;10.052;2022-11-15T15:25:28;67.68;;;63.38;;
47239;SDS011;32978;53.586;10.052;2022-11-15T15:30:26;75.55;;;70.95;;
47239;SDS011;32978;53.586;10.052;2022-11-15T15:35:22;81.82;;;76.80;;
47239;SDS011;32978;53.586;10.052;2022-11-15T15:40:20;88.97;;;83.63;;
47239;SDS011;32978;53.586;10.052;2022-11-15T15:45:17;93.07;;;87.38;;
47239;SDS011;32978;53.586;10.052;2022-11-15T15:55:10;98.97;;;93.10;;
47239;SDS011;32978;53.586;10.052;2022-11-15T16:00:06;97.25;;;91.35;;
47239;SDS011;32978;53.586;10.052;2022-11-15T16:05:03;101.05;;;94.88;;
47239;SDS011;32978;53.586;10.052;2022-11-15T16:10:00;95.75;;;90.05;;
47239;SDS011;32978;53.586;10.052;2022-11-15T16:14:56;103.93;;;97.63;;
47239;SDS011;32978;53.586;10.052;2022-11-15T16:19:52;99.45;;;93.50;;
47239;SDS011;32978;53.586;10.052;2022-11-15T16:24:49;104.70;;;98.38;;
47239;SDS011;32978;53.586;10.052;2022-11-15T16:29:45;107.13;;;100.88;;
47239;SDS011;32978;53.586;10.052;2022-11-15T16:34:42;113.30;;;106.55;;
47239;SDS011;32978;53.586;10.052;2022-11-15T16:39:44;104.40;;;98.10;;
47239;SDS011;32978;53.586;10.052;2022-11-15T16:44:40;105.85;;;99.55;;
47239;SDS011;32978;53.586;10.052;2022-11-15T16:49:36;111.47;;;104.25;;
47239;SDS011;32978;53.586;10.052;2022-11-15T16:54:32;103.07;;;96.80;;
47239;SDS011;32978;53.586;10.052;2022-11-15T16:59:29;104.10;;;97.82;;
47239;SDS011;32978;53.586;10.052;2022-11-15T17:04:33;107.40;;;100.78;;
47239;SDS011;32978;53.586;10.052;2022-11-15T17:09:29;105.80;;;99.30;;
47239;SDS011;32978;53.586;10.052;2022-11-15T17:14:26;108.40;;;101.82;;
47239;SDS011;32978;53.586;10.052;2022-11-15T17:19:22;109.63;;;103.03;;
47239;SDS011;32978;53.586;10.052;2022-11-15T17:24:18;111.55;;;104.50;;
47239;SDS011;32978;53.586;10.052;2022-11-15T17:29:16;113.15;;;106.43;;
47239;SDS011;32978;53.586;10.052;2022-11-15T17:34:13;112.60;;;105.50;;
47239;SDS011;32978;53.586;10.052;2022-11-15T17:39:09;116.45;;;109.10;;
47239;SDS011;32978;53.586;10.052;2022-11-15T17:44:06;116.00;;;108.97;;
47239;SDS011;32978;53.586;10.052;2022-11-15T17:49:02;119.15;;;112.03;;
47239;SDS011;32978;53.586;10.052;2022-11-15T17:53:58;124.18;;;116.57;;
47239;SDS011;32978;53.586;10.052;2022-11-15T17:58:55;127.20;;;119.40;;
47239;SDS011;32978;53.586;10.052;2022-11-15T18:03:52;120.50;;;112.78;;
47239;SDS011;32978;53.586;10.052;2022-11-15T18:08:49;126.88;;;119.00;;
47239;SDS011;32978;53.586;10.052;2022-11-15T18:13:47;125.53;;;117.75;;
47239;SDS011;32978;53.586;10.052;2022-11-15T18:18:47;122.73;;;115.23;;
47239;SDS011;32978;53.586;10.052;2022-11-15T18:23:44;124.40;;;116.80;;
47239;SDS011;32978;53.586;10.052;2022-11-15T18:28:42;125.07;;;117.35;;
47239;SDS011;32978;53.586;10.052;2022-11-15T18:33:38;122.32;;;114.88;;
47239;SDS011;32978;53.586;10.052;2022-11-15T18:38:34;128.57;;;120.60;;
47239;SDS011;32978;53.586;10.052;2022-11-15T18:43:31;129.05;;;121.43;;
47239;SDS011;32978;53.586;10.052;2022-11-15T18:48:28;124.47;;;116.97;;
47239;SDS011;32978;53.586;10.052;2022-11-15T18:53:25;121.78;;;114.43;;
47239;SDS011;32978;53.586;10.052;2022-11-15T18:58:21;119.47;;;112.28;;
47239;SDS011;32978;53.586;10.052;2022-11-15T19:03:17;120.77;;;113.30;;
47239;SDS011;32978;53.586;10.052;2022-11-15T19:08:19;119.30;;;112.13;;
47239;SDS011;32978;53.586;10.052;2022-11-15T19:13:16;123.32;;;116.10;;
47239;SDS011;32978;53.586;10.052;2022-11-15T19:18:13;122.53;;;115.07;;
47239;SDS011;32978;53.586;10.052;2022-11-15T19:23:09;119.15;;;111.82;;
47239;SDS011;32978;53.586;10.052;2022-11-15T19:28:05;122.63;;;115.13;;
47239;SDS011;32978;53.586;10.052;2022-11-15T19:33:02;127.78;;;120.05;;
47239;SDS011;32978;53.586;10.052;2022-11-15T19:37:58;123.38;;;115.88;;
47239;SDS011;32978;53.586;10.052;2022-11-15T19:42:54;122.45;;;114.97;;
47239;SDS011;32978;53.586;10.052;2022-11-15T19:47:51;124.10;;;116.53;;
47239;SDS011;32978;53.586;10.052;2022-11-15T19:52:47;122.15;;;114.85;;
47239;SDS011;32978;53.586;10.052;2022-11-15T19:57:43;126.30;;;118.72;;
47239;SDS011;32978;53.586;10.052;2022-11-15T20:02:40;125.60;;;118.13;;
47239;SDS011;32978;53.586;10.052;2022-11-15T20:07:36;127.65;;;120.13;;
47239;SDS011;32978;53.586;10.052;2022-11-15T20:12:33;123.93;;;116.28;;
47239;SDS011;32978;53.586;10.052;2022-11-15T20:17:29;123.43;;;115.82;;
47239;SDS011;32978;53.586;10.052;2022-11-15T20:22:25;121.57;;;114.35;;
47239;SDS011;32978;53.586;10.052;2022-11-15T20:27:22;120.70;;;113.60;;
47239;SDS011;32978;53.586;10.052;2022-11-15T20:32:18;120.68;;;113.60;;
47239;SDS011;32978;53.586;10.052;2022-11-15T20:37:14;114.85;;;108.10;;
47239;SDS011;32978;53.586;10.052;2022-11-15T20:42:11;116.22;;;108.90;;
47239;SDS011;32978;53.586;10.052;2022-11-15T20:47:07;110.18;;;103.07;;
47239;SDS011;32978;53.586;10.052;2022-11-15T20:52:03;101.78;;;95.57;;
47239;SDS011;32978;53.586;10.052;2022-11-15T20:56:59;108.47;;;101.57;;
47239;SDS011;32978;53.586;10.052;2022-11-15T21:01:56;104.00;;;97.72;;
47239;SDS011;32978;53.586;10.052;2022-11-15T21:06:52;102.68;;;96.03;;
47239;SDS011;32978;53.586;10.052;2022-11-15T21:11:48;101.10;;;94.70;;
47239;SDS011;32978;53.586;10.052;2022-11-15T21:17:03;98.65;;;92.55;;
47239;SDS011;32978;53.586;10.052;2022-11-15T21:22:00;92.20;;;86.50;;
47239;SDS011;32978;53.586;10.052;2022-11-15T21:26:56;93.82;;;88.15;;
47239;SDS011;32978;53.586;10.052;2022-11-15T21:31:53;94.63;;;88.72;;
47239;SDS011;32978;53.586;10.052;2022-11-15T21:36:49;100.20;;;93.88;;
47239;SDS011;32978;53.586;10.052;2022-11-15T21:41:45;96.13;;;90.32;;
47239;SDS011;32978;53.586;10.052;2022-11-15T21:46:42;94.90;;;88.93;;
47239;SDS011;32978;53.586;10.052;2022-11-15T21:51:38;93.47;;;87.47;;
47239;SDS011;32978;53.586;10.052;2022-11-15T21:56:34;88.97;;;83.57;;
47239;SDS011;32978;53.586;10.052;2022-11-15T22:01:31;89.88;;;84.55;;
47239;SDS011;32978;53.586;10.052;2022-11-15T22:06:45;85.40;;;80.18;;
47239;SDS011;32978;53.586;10.052;2022-11-15T22:11:42;83.35;;;77.95;;
47239;SDS011;32978;53.586;10.052;2022-11-15T22:16:38;77.30;;;72.32;;
47239;SDS011;32978;53.586;10.052;2022-11-15T22:21:34;79.43;;;74.22;;
47239;SDS011;32978;53.586;10.052;2022-11-15T22:26:33;79.47;;;74.30;;
47239;SDS011;32978;53.586;10.052;2022-11-15T22:31:29;77.13;;;71.95;;
47239;SDS011;32978;53.586;10.052;2022-11-15T22:36:25;75.75;;;70.60;;
47239;SDS011;32978;53.586;10.052;2022-11-15T22:41:37;77.43;;;72.47;;
47239;SDS011;32978;53.586;10.052;2022-11-15T22:46:34;70.05;;;65.53;;
47239;SDS011;32978;53.586;10.052;2022-11-15T22:51:30;72.88;;;67.75;;
47239;SDS011;32978;53.586;10.052;2022-11-15T22:56:26;72.93;;;68.07;;
47239;SDS011;32978;53.586;10.052;2022-11-15T23:01:22;71.47;;;66.72;;
47239;SDS011;32978;53.586;10.052;2022-11-15T23:06:19;73.70;;;68.50;;
47239;SDS011;32978;53.586;10.052;2022-11-15T23:11:15;74.55;;;69.80;;
47239;SDS011;32978;53.586;10.052;2022-11-15T23:16:30;74.38;;;69.47;;
47239;SDS011;32978;53.586;10.052;2022-11-15T23:21:33;80.68;;;75.53;;
47239;SDS011;32978;53.586;10.052;2022-11-15T23:26:50;85.07;;;79.78;;
47239;SDS011;32978;53.586;10.052;2022-11-15T23:31:47;88.60;;;83.30;;
47239;SDS011;32978;53.586;10.052;2022-11-15T23:37:02;95.13;;;89.05;;
47239;SDS011;32978;53.586;10.052;2022-11-15T23:41:58;99.85;;;93.78;;
47239;SDS011;32978;53.586;10.052;2022-11-15T23:47:01;95.65;;;89.78;;
47239;SDS011;32978;53.586;10.052;2022-11-15T23:51:57;97.93;;;91.47;;
47239;SDS011;32978;53.586;10.052;2022-11-15T23:56:53;100.13;;;93.82;;
